首页
METAR-TAF:

METAR-TAF

机场 :

廊曼国际机场

曼谷, 泰国

纬度: 13-54-45N, 经度: 100-36-24E, 海拔: 4米

当前天气观测

该预报发布于34分钟前的13:00 UTC
风速11节,风向
温度 26°C
湿度 94%
气压 1006 hPa
能见度10公里或以上
少量云层高于2000英尺
多云层高于4000英尺
小雨,

METAR: VTBD 301300Z 18011KT 9999 -RA FEW020 BKN040 26/25 Q1006 NOSIG

时间: 20:34 (13:34 UTC)

预报

该预报发布于2小时和34分钟前的11:00 UTC
预报有效从30日的 12点(UTC)到 31日的 18点(UTC)
风速10节,风向西转西南
能见度10公里或以上
少量云层高于2000英尺
散云层高于8000英尺
短暂存在
从 30日的 12点(UTC)到 30日的 15点(UTC)
风速15节,风向多变
能見度: 4000
少量云层高于1800英尺, 积雨云.
散云层高于3500英尺
多云层高于8000英尺
雷暴, 雨
短暂存在
从 31日的 09点(UTC)到 31日的 15点(UTC)
风速15节,风向西,有时为25节阵风
能見度: 3000
少量云层高于1800英尺, 积雨云.
散云层高于3500英尺
多云层高于8000英尺
雷暴, 雨,

TAF: VTBD 301100Z 3012/3118 24010KT 9999 FEW020 SCT080 TEMPO 3012/3015 VRB15KT 4000 TSRA FEW018CB SCT035 BKN080 TEMPO 3109/3115 26015G25KT 3000 TSRA FEW018CB SCT035 BKN080

超过4000个机场的气象观测和天气预报(METAR&TAF报告)。

可查询的气象台以黄色和红色小点在地图上表示。

将鼠标移到小点上方,可查看气象台名称。

然后点击查看天气观测和预报。

如需切换地图:点击带黑十字的绿色按钮放大地图;点击带横线的绿色按钮缩小地图;或者点击绿色箭头查看邻近地区的地图。


METAR-TAF: